SVA705 OPKC-OEJN
Flight info
| Callsign | SVA705 |
|---|---|
| Flight time | N/A |
| Altitude | 36000 |
| Route | MELOM A454 TAPDO G652 TULBU M628 PEKEM/N0490F380 DCT MEDPO DCT ASMIS T218 ITOLO M309 VEMEM |
| Aircraft | B77W/H-SDE1E2E3FGHIJ2J3J4J5M1RWXY/LB1D1 |
Departure
| Time | N/A |
|---|---|
| Airport | Jinnah International Airport (OPKC) |
Arrival
| Time | 2025-10-28 03:01 |
|---|---|
| Airport | King Abdulaziz International Airport (OEJN) |
| Time | Latitude | Longitude | Altitude | Speed | Heading |
|---|---|---|---|---|---|
| 2025-10-27 23:27 | 25.30697 | 65.39317 | 35374 ft | 478 kts | 283° |
| 2025-10-27 23:29 | 25.36795 | 65.10707 | 36005 ft | 480 kts | 283° |
| 2025-10-27 23:31 | 25.41282 | 64.82604 | 36012 ft | 475 kts | 263° |
| 2025-10-27 23:33 | 25.33725 | 64.54623 | 36002 ft | 476 kts | 253° |
| 2025-10-27 23:35 | 25.26884 | 64.30151 | 36000 ft | 477 kts | 253° |
| 2025-10-27 23:37 | 25.18360 | 63.99923 | 36000 ft | 477 kts | 253° |
| 2025-10-27 23:38 | 25.11461 | 63.75645 | 35999 ft | 476 kts | 252° |
| 2025-10-27 23:41 | 25.02489 | 63.44319 | 36004 ft | 476 kts | 252° |
| 2025-10-27 23:42 | 24.95452 | 63.19941 | 36000 ft | 477 kts | 252° |
| 2025-10-27 23:45 | 24.86407 | 62.88845 | 36002 ft | 477 kts | 252° |
| 2025-10-27 23:46 | 24.79271 | 62.64500 | 36001 ft | 477 kts | 252° |
| 2025-10-27 23:49 | 24.70182 | 62.33722 | 36001 ft | 477 kts | 252° |
| 2025-10-27 23:51 | 24.61946 | 62.06053 | 36002 ft | 477 kts | 252° |
| 2025-10-27 23:53 | 24.53677 | 61.78479 | 36001 ft | 477 kts | 252° |
| 2025-10-27 23:55 | 24.45328 | 61.50841 | 35999 ft | 477 kts | 252° |
| 2025-10-27 23:57 | 24.36798 | 61.23307 | 36003 ft | 477 kts | 250° |
| 2025-10-27 23:59 | 24.27924 | 60.96028 | 35999 ft | 477 kts | 250° |
| 2025-10-28 00:01 | 24.18993 | 60.68690 | 36000 ft | 477 kts | 250° |
| 2025-10-28 00:03 | 24.11104 | 60.44779 | 35998 ft | 477 kts | 250° |
| 2025-10-28 00:05 | 24.00923 | 60.14108 | 35999 ft | 477 kts | 250° |
| 2025-10-28 00:07 | 23.92994 | 59.90381 | 36002 ft | 477 kts | 250° |
| 2025-10-28 00:09 | 23.82705 | 59.59790 | 35998 ft | 477 kts | 250° |
| 2025-10-28 00:11 | 23.74751 | 59.37092 | 35538 ft | 434 kts | 249° |
| 2025-10-28 00:13 | 23.64547 | 59.08894 | 35888 ft | 449 kts | 249° |
| 2025-10-28 00:15 | 23.55437 | 58.83840 | 35876 ft | 443 kts | 249° |
| 2025-10-28 00:17 | 23.46333 | 58.58939 | 35896 ft | 442 kts | 248° |
| 2025-10-28 00:19 | 23.38269 | 58.37171 | 35908 ft | 445 kts | 247° |
| 2025-10-28 00:21 | 23.27549 | 58.09189 | 35921 ft | 446 kts | 248° |
| 2025-10-28 00:22 | 23.20042 | 57.88353 | 35963 ft | 447 kts | 250° |
| 2025-10-28 00:25 | 23.10207 | 57.59836 | 35976 ft | 448 kts | 249° |
| 2025-10-28 00:26 | 23.02507 | 57.37699 | 35986 ft | 446 kts | 249° |
| 2025-10-28 00:29 | 23.00673 | 57.07653 | 36000 ft | 450 kts | 269° |
| 2025-10-28 00:31 | 23.01324 | 56.80536 | 35957 ft | 448 kts | 269° |
| 2025-10-28 00:33 | 23.01937 | 56.53636 | 35959 ft | 446 kts | 269° |
| 2025-10-28 00:35 | 23.02500 | 56.26669 | 35947 ft | 447 kts | 268° |
| 2025-10-28 00:37 | 23.02969 | 55.99772 | 35950 ft | 447 kts | 268° |
| 2025-10-28 00:39 | 23.03456 | 55.72835 | 35938 ft | 446 kts | 268° |
| 2025-10-28 00:41 | 23.03901 | 55.46005 | 35952 ft | 444 kts | 268° |
| 2025-10-28 00:42 | 23.02625 | 55.22688 | 35950 ft | 441 kts | 256° |
| 2025-10-28 00:45 | 22.96853 | 54.93433 | 35943 ft | 443 kts | 256° |
| 2025-10-28 00:46 | 22.92316 | 54.70556 | 35959 ft | 443 kts | 256° |
| 2025-10-28 00:49 | 22.86447 | 54.41223 | 35964 ft | 443 kts | 256° |
| 2025-10-28 00:51 | 22.81840 | 54.18398 | 35976 ft | 444 kts | 256° |
| 2025-10-28 00:53 | 22.76012 | 53.89374 | 37963 ft | 438 kts | 256° |
| 2025-10-28 00:55 | 22.71642 | 53.66980 | 37965 ft | 433 kts | 256° |
| 2025-10-28 00:57 | 22.66594 | 53.41415 | 37970 ft | 436 kts | 256° |
| 2025-10-28 00:59 | 22.61482 | 53.15737 | 37969 ft | 435 kts | 256° |
| 2025-10-28 01:01 | 22.55725 | 52.87091 | 37976 ft | 434 kts | 256° |
| 2025-10-28 01:03 | 22.51206 | 52.64798 | 37975 ft | 434 kts | 256° |
| 2025-10-28 01:05 | 22.45338 | 52.36091 | 37989 ft | 435 kts | 256° |
| 2025-10-28 01:07 | 22.41139 | 52.13691 | 37991 ft | 437 kts | 264° |
| 2025-10-28 01:09 | 22.43221 | 51.85284 | 37983 ft | 440 kts | 272° |
| 2025-10-28 01:10 | 22.45358 | 51.62289 | 37996 ft | 440 kts | 272° |
| 2025-10-28 01:12 | 22.47755 | 51.36032 | 37993 ft | 438 kts | 272° |
| 2025-10-28 01:15 | 22.50397 | 51.06528 | 38001 ft | 438 kts | 272° |
| 2025-10-28 01:17 | 22.52699 | 50.80308 | 38002 ft | 439 kts | 272° |
| 2025-10-28 01:19 | 22.54961 | 50.54053 | 38014 ft | 438 kts | 271° |
| 2025-10-28 01:21 | 22.57176 | 50.27826 | 38016 ft | 438 kts | 271° |
| 2025-10-28 01:23 | 22.59355 | 50.01525 | 38021 ft | 438 kts | 271° |
| 2025-10-28 01:25 | 22.61459 | 49.75621 | 38024 ft | 438 kts | 271° |
| 2025-10-28 01:26 | 22.63287 | 49.52665 | 38025 ft | 438 kts | 271° |
| 2025-10-28 01:29 | 22.65595 | 49.23080 | 38014 ft | 439 kts | 271° |
| 2025-10-28 01:30 | 22.67354 | 49.00052 | 38033 ft | 439 kts | 271° |
| 2025-10-28 01:33 | 22.69560 | 48.70524 | 38029 ft | 438 kts | 271° |
| 2025-10-28 01:34 | 22.71244 | 48.47469 | 38029 ft | 438 kts | 271° |
| 2025-10-28 01:37 | 22.73126 | 48.21142 | 38008 ft | 440 kts | 272° |
| 2025-10-28 01:39 | 22.74971 | 47.94718 | 38019 ft | 441 kts | 272° |
| 2025-10-28 01:41 | 22.77005 | 47.64838 | 38031 ft | 443 kts | 272° |
| 2025-10-28 01:43 | 22.78767 | 47.38256 | 38036 ft | 442 kts | 273° |
| 2025-10-28 01:45 | 22.80270 | 47.15045 | 38060 ft | 441 kts | 273° |
| 2025-10-28 01:47 | 22.81943 | 46.88556 | 38047 ft | 442 kts | 273° |
| 2025-10-28 01:49 | 22.83754 | 46.59048 | 38057 ft | 442 kts | 273° |
| 2025-10-28 01:51 | 22.85146 | 46.35745 | 38051 ft | 443 kts | 274° |
| 2025-10-28 01:53 | 22.86885 | 46.05791 | 38055 ft | 442 kts | 274° |
| 2025-10-28 01:55 | 22.88191 | 45.82640 | 38057 ft | 441 kts | 274° |
| 2025-10-28 01:57 | 22.89764 | 45.53896 | 38062 ft | 440 kts | 274° |
| 2025-10-28 01:59 | 22.91168 | 45.27405 | 38089 ft | 441 kts | 274° |
| 2025-10-28 02:01 | 22.92530 | 45.00879 | 38099 ft | 440 kts | 274° |
| 2025-10-28 02:03 | 22.93839 | 44.74530 | 38111 ft | 438 kts | 274° |
| 2025-10-28 02:05 | 22.93377 | 44.48056 | 38117 ft | 440 kts | 269° |
| 2025-10-28 02:06 | 22.92336 | 44.24889 | 38120 ft | 439 kts | 269° |
| 2025-10-28 02:09 | 22.90958 | 43.95162 | 38130 ft | 439 kts | 269° |
| 2025-10-28 02:10 | 22.89847 | 43.72031 | 38140 ft | 439 kts | 269° |
| 2025-10-28 02:13 | 22.88369 | 43.42308 | 38152 ft | 439 kts | 269° |
| 2025-10-28 02:14 | 22.87184 | 43.19224 | 38144 ft | 439 kts | 269° |
| 2025-10-28 02:16 | 22.85791 | 42.92896 | 38156 ft | 440 kts | 269° |
| 2025-10-28 02:18 | 22.84347 | 42.66429 | 38154 ft | 440 kts | 269° |
| 2025-10-28 02:21 | 22.82667 | 42.36614 | 38173 ft | 441 kts | 268° |
| 2025-10-28 02:23 | 22.81124 | 42.10055 | 38181 ft | 442 kts | 268° |
| 2025-10-28 02:25 | 22.79543 | 41.83604 | 38184 ft | 442 kts | 268° |
| 2025-10-28 02:27 | 22.77903 | 41.57001 | 38183 ft | 442 kts | 268° |
| 2025-10-28 02:29 | 22.74189 | 41.30790 | 38174 ft | 446 kts | 251° |
| 2025-10-28 02:31 | 22.66160 | 41.08960 | 38180 ft | 446 kts | 251° |
| 2025-10-28 02:33 | 22.55851 | 40.80951 | 38179 ft | 446 kts | 251° |
| 2025-10-28 02:35 | 22.47778 | 40.59160 | 37162 ft | 451 kts | 251° |
| 2025-10-28 02:37 | 22.37094 | 40.30479 | 29262 ft | 462 kts | 251° |
| 2025-10-28 02:39 | 22.28840 | 40.08434 | 24326 ft | 446 kts | 250° |
| 2025-10-28 02:39 | 22.26530 | 40.02322 | 23428 ft | 432 kts | 248° |
| 2025-10-28 02:40 | 22.21957 | 39.94603 | 22827 ft | 399 kts | 237° |
| 2025-10-28 02:40 | 22.19411 | 39.90599 | 22538 ft | 381 kts | 239° |
| 2025-10-28 02:41 | 22.16566 | 39.85947 | 22058 ft | 367 kts | 239° |
| 2025-10-28 02:41 | 22.13768 | 39.81366 | 21247 ft | 363 kts | 239° |
| 2025-10-28 02:41 | 22.12377 | 39.79092 | 20818 ft | 362 kts | 239° |
| 2025-10-28 02:42 | 22.09617 | 39.74586 | 20008 ft | 359 kts | 238° |
| 2025-10-28 02:42 | 22.06904 | 39.70164 | 19470 ft | 348 kts | 238° |
| 2025-10-28 02:43 | 22.04257 | 39.65850 | 18847 ft | 339 kts | 238° |
| 2025-10-28 02:44 | 22.00471 | 39.59682 | 17983 ft | 326 kts | 238° |
| 2025-10-28 02:44 | 21.97969 | 39.55608 | 17149 ft | 325 kts | 237° |
| 2025-10-28 02:45 | 21.95482 | 39.51566 | 16418 ft | 321 kts | 237° |
| 2025-10-28 02:45 | 21.94258 | 39.49567 | 16065 ft | 319 kts | 238° |
| 2025-10-28 02:45 | 21.91636 | 39.45924 | 15137 ft | 315 kts | 207° |
| 2025-10-28 02:46 | 21.87373 | 39.45338 | 14288 ft | 311 kts | 183° |
| 2025-10-28 02:46 | 21.83091 | 39.44973 | 13707 ft | 305 kts | 185° |
| 2025-10-28 02:47 | 21.78898 | 39.44555 | 12991 ft | 302 kts | 185° |
| 2025-10-28 02:48 | 21.72663 | 39.43940 | 11923 ft | 298 kts | 185° |
| 2025-10-28 02:48 | 21.68586 | 39.43541 | 11463 ft | 287 kts | 185° |
| 2025-10-28 02:48 | 21.66611 | 39.43348 | 11210 ft | 283 kts | 185° |
| 2025-10-28 02:49 | 21.62731 | 39.42970 | 10586 ft | 281 kts | 185° |
| 2025-10-28 02:49 | 21.58846 | 39.42592 | 9981 ft | 279 kts | 184° |
| 2025-10-28 02:50 | 21.54983 | 39.42216 | 9329 ft | 277 kts | 184° |
| 2025-10-28 02:50 | 21.51152 | 39.41843 | 8678 ft | 275 kts | 184° |
| 2025-10-28 02:51 | 21.47345 | 39.41474 | 8042 ft | 274 kts | 184° |
| 2025-10-28 02:52 | 21.41701 | 39.40925 | 7132 ft | 271 kts | 185° |
| 2025-10-28 02:52 | 21.37952 | 39.40561 | 6535 ft | 270 kts | 185° |
| 2025-10-28 02:52 | 21.36120 | 39.40243 | 6175 ft | 266 kts | 201° |
| 2025-10-28 02:53 | 21.33696 | 39.37358 | 5400 ft | 268 kts | 249° |
| 2025-10-28 02:53 | 21.32919 | 39.33508 | 5067 ft | 271 kts | 281° |
| 2025-10-28 02:54 | 21.35097 | 39.30407 | 4647 ft | 269 kts | 338° |
| 2025-10-28 02:54 | 21.38574 | 39.29066 | 3979 ft | 266 kts | 341° |
| 2025-10-28 02:55 | 21.42278 | 39.27635 | 3386 ft | 262 kts | 340° |
| 2025-10-28 02:56 | 21.45652 | 39.26322 | 3051 ft | 249 kts | 340° |
| 2025-10-28 02:56 | 21.48743 | 39.25121 | 2981 ft | 221 kts | 340° |
| 2025-10-28 02:57 | 21.51462 | 39.24048 | 3039 ft | 206 kts | 340° |
| 2025-10-28 02:57 | 21.54171 | 39.22980 | 2521 ft | 208 kts | 340° |
| 2025-10-28 02:58 | 21.56861 | 39.21919 | 1996 ft | 203 kts | 340° |
| 2025-10-28 02:58 | 21.59422 | 39.20908 | 1491 ft | 183 kts | 339° |
| 2025-10-28 02:59 | 21.61662 | 39.20005 | 995 ft | 159 kts | 339° |
| 2025-10-28 02:59 | 21.62715 | 39.19589 | 863 ft | 158 kts | 340° |
| 2025-10-28 03:00 | 21.65590 | 39.18463 | 310 ft | 143 kts | 340° |
| 2025-10-28 03:00 | 21.67420 | 39.17745 | 39 ft | 125 kts | 339° |
| 2025-10-28 03:01 | 21.68368 | 39.17280 | 31 ft | 36 kts | 306° |
| 2025-10-28 03:01 | 21.68472 | 39.17124 | 32 ft | 22 kts | 301° |
| 2025-10-28 03:01 | 21.68407 | 39.17023 | 33 ft | 12 kts | 157° |
| 2025-10-28 03:02 | 21.68252 | 39.17087 | 34 ft | 12 kts | 160° |
| 2025-10-28 03:02 | 21.68091 | 39.17148 | 34 ft | 12 kts | 160° |
| 2025-10-28 03:03 | 21.67932 | 39.17210 | 35 ft | 12 kts | 159° |
| 2025-10-28 03:04 | 21.67690 | 39.17307 | 36 ft | 12 kts | 160° |
| 2025-10-28 03:04 | 21.67533 | 39.17244 | 37 ft | 13 kts | 213° |
| 2025-10-28 03:05 | 21.67398 | 39.17175 | 37 ft | 2 kts | 168° |
| 2025-10-28 03:05 | 21.67318 | 39.17150 | 37 ft | 5 kts | 142° |
| 2025-10-28 03:05 | 21.67310 | 39.17158 | 37 ft | 0 kts | 140° |
| 2025-10-28 03:08 | 21.67092 | 39.17872 | 44 ft | 135 kts | 340° |
| 2025-10-28 03:08 | 21.62362 | 39.19729 | 904 ft | 162 kts | 340° |
| 2025-10-28 03:09 | 21.64346 | 39.18953 | 561 ft | 143 kts | 340° |
| 2025-10-28 03:09 | 21.66212 | 39.18218 | 179 ft | 144 kts | 340° |
| 2025-10-28 03:09 | 21.67137 | 39.17854 | 42 ft | 133 kts | 340° |
| 2025-10-28 03:10 | 21.64787 | 39.18781 | 411 ft | 146 kts | 339° |
| 2025-10-28 03:10 | 21.66664 | 39.18044 | 90 ft | 142 kts | 338° |
| 2025-10-28 03:11 | 21.64472 | 39.18903 | 514 ft | 143 kts | 339° |
| 2025-10-28 03:12 | 21.67165 | 39.17845 | 40 ft | 128 kts | 338° |
| 2025-10-28 03:12 | 21.66176 | 39.18239 | 202 ft | 135 kts | 338° |
| 2025-10-28 03:13 | 21.67309 | 39.17158 | 37 ft | 1 kts | 140° |
| 2025-10-28 03:13 | 21.67307 | 39.17160 | 37 ft | 1 kts | 140° |